Estación de Campanacura

Ultimos registro cada 15 minutos 27
Estación Fecha / Hora Temperatura Humedad Lluvia Velocidad Dirección Radiación Presion
27 Campanacura 08-05-2026 06:30 7,5 23,2 0 0 291 0,6 1007,9
26 Campanacura 08-05-2026 06:15 7,5 22,9 0 0 289 0,6 1008,1
25 Campanacura 08-05-2026 06:00 7,3 23,2 0 0 289 0,6 1008,1
24 Campanacura 08-05-2026 05:45 7,5 23,8 0 0 288 0,6 1008
23 Campanacura 08-05-2026 05:30 7,8 23,1 0 0 236 0,6 1008,3
22 Campanacura 08-05-2026 05:15 7,7 22,7 0 0 215 0,6 1008,6
21 Campanacura 08-05-2026 05:00 7,7 22 0 0 213 0,6 1008,4
20 Campanacura 08-05-2026 04:45 7,7 21,7 0 0 215 0,6 1008,4
19 Campanacura 08-05-2026 04:30 7,6 21,6 0 0 216 0,6 1008,5
18 Campanacura 08-05-2026 04:15 7,6 21,5 0 0 216 0,6 1008,5
17 Campanacura 08-05-2026 04:00 7,5 21,8 0 0 216 0,6 1008,7
16 Campanacura 08-05-2026 03:45 7,5 21,9 0 0 216 0,6 1008,7
15 Campanacura 08-05-2026 03:30 7,4 22,1 0 0 216 0,6 1008,7
14 Campanacura 08-05-2026 03:15 7,3 22,3 0 0 216 0,6 1008,9
13 Campanacura 08-05-2026 03:00 7,3 22,5 0 0 216 0,6 1009,1
12 Campanacura 08-05-2026 02:45 7,3 22,4 0 0 215 0,6 1009,4
11 Campanacura 08-05-2026 02:30 7,2 22,7 0 0 215 0,6 1010
10 Campanacura 08-05-2026 02:15 7,1 23 0 0 215 0,6 1010,1
9 Campanacura 08-05-2026 02:00 7,2 23,1 0 0 215 0,6 1009,9
8 Campanacura 08-05-2026 01:45 7,3 23,5 0 0 215 0,6 1010,5
7 Campanacura 08-05-2026 01:30 7,2 24,1 0 0 215 0,6 1010,8
6 Campanacura 08-05-2026 01:15 7,1 25,2 0 0 215 0,6 1010,7
5 Campanacura 08-05-2026 01:00 6,9 26 0 0 215 0,6 1010,7
4 Campanacura 08-05-2026 00:45 6,7 27,1 0 0 215 0,6 1010,9
3 Campanacura 08-05-2026 00:30 6,8 27,7 0 0 215 0,6 1011
2 Campanacura 08-05-2026 00:15 6,8 29,5 0 0 215 0,6 1011,1
1 Campanacura 08-05-2026 00:00 7 30,3 0 0 215 0,6 1011